Time;durP1;ratioP1;P1;durP2;ratioP2;P2;SDS_P1;SDS_P2;PMS_P1;PMS_P2;Temp;Humidity;BMP_temperature;BMP_pressure;BME280_temperature;BME280_humidity;BME280_pressure;Samples;Min_cycle;Max_cycle;Signal;HPM_P1;HPM_P2
2022/10/15 00:00:24;;;;;;;;;;;22.60;53.20;;;;;;492221;240;1112;-61
2022/10/15 00:02:26;;;;;;;;;;;22.60;53.20;;;;;;492335;240;1222;-61
2022/10/15 00:04:27;;;;;;;;;;;22.70;53.10;;;;;;492203;241;1214;-60
2022/10/15 00:06:28;;;;;;;;;;;22.70;53.00;;;;;;492181;240;1189;-60
2022/10/15 00:08:30;;;;;;;;;;;22.60;53.00;;;;;;492352;240;1232;-60
2022/10/15 00:10:31;;;;;;;;;;;22.70;53.00;;;;;;492201;240;1102;-60
2022/10/15 00:12:32;;;;;;;;;;;22.70;53.00;;;;;;492182;241;1185;-61
2022/10/15 00:14:34;;;;;;;;;;;22.70;53.20;;;;;;492356;240;2156;-60
2022/10/15 00:16:35;;;;;;;;;;;22.60;53.20;;;;;;492224;240;1160;-60
2022/10/15 00:18:36;;;;;;;;;;;22.70;53.00;;;;;;492178;241;1106;-61
2022/10/15 00:20:38;;;;;;;;;;;22.60;53.10;;;;;;492145;241;1122;-61
2022/10/15 00:22:39;;;;;;;;;;;22.60;53.20;;;;;;492267;240;1198;-60
2022/10/15 00:24:41;;;;;;;;;;;22.60;53.10;;;;;;492121;241;1195;-61
2022/10/15 00:26:42;;;;;;;;;;;22.60;53.10;;;;;;492245;240;1223;-60
2022/10/15 00:28:43;;;;;;;;;;;22.70;53.00;;;;;;492157;241;1185;-61
2022/10/15 00:30:45;;;;;;;;;;;22.60;53.10;;;;;;492306;240;1306;-61
2022/10/15 00:32:46;;;;;;;;;;;22.70;53.10;;;;;;492193;241;1383;-60
2022/10/15 00:34:47;;;;;;;;;;;22.70;53.10;;;;;;492163;241;2184;-62
2022/10/15 00:36:49;;;;;;;;;;;22.70;53.20;;;;;;492225;240;1283;-60
2022/10/15 00:38:50;;;;;;;;;;;22.70;53.00;;;;;;492219;241;1151;-60
2022/10/15 00:40:51;;;;;;;;;;;22.60;53.10;;;;;;492417;240;1168;-61
2022/10/15 00:42:53;;;;;;;;;;;22.60;53.10;;;;;;492367;240;1165;-61
2022/10/15 00:44:54;;;;;;;;;;;22.70;53.10;;;;;;492213;241;1190;-60
2022/10/15 00:46:55;;;;;;;;;;;22.70;53.00;;;;;;492274;240;1128;-60
2022/10/15 00:48:56;;;;;;;;;;;22.60;53.10;;;;;;492321;240;1239;-61
2022/10/15 00:50:58;;;;;;;;;;;22.60;53.20;;;;;;492289;240;1184;-60
2022/10/15 00:53:00;;;;;;;;;;;22.50;53.30;;;;;;492122;241;1539;-60
2022/10/15 00:55:01;;;;;;;;;;;22.60;53.30;;;;;;492243;240;2188;-60
2022/10/15 00:57:02;;;;;;;;;;;22.60;53.30;;;;;;492145;241;1156;-60
2022/10/15 00:59:04;;;;;;;;;;;22.50;53.30;;;;;;492185;240;1131;-60
2022/10/15 01:01:05;;;;;;;;;;;22.60;53.30;;;;;;492163;241;1157;-60
2022/10/15 01:03:07;;;;;;;;;;;22.60;53.10;;;;;;492192;240;1166;-61
2022/10/15 01:05:08;;;;;;;;;;;22.60;53.20;;;;;;492217;240;1420;-60
2022/10/15 01:07:09;;;;;;;;;;;22.60;53.20;;;;;;492153;240;1237;-61
2022/10/15 01:09:10;;;;;;;;;;;22.60;53.20;;;;;;492350;240;1206;-60
2022/10/15 01:11:12;;;;;;;;;;;22.60;53.30;;;;;;492282;240;1337;-60
2022/10/15 01:13:13;;;;;;;;;;;22.60;53.20;;;;;;492128;241;1222;-60
2022/10/15 01:15:14;;;;;;;;;;;22.60;53.10;;;;;;492259;240;2173;-60
2022/10/15 01:17:16;;;;;;;;;;;22.60;53.20;;;;;;492271;240;1199;-61
2022/10/15 01:19:17;;;;;;;;;;;22.60;53.20;;;;;;492269;240;1121;-61
2022/10/15 01:21:18;;;;;;;;;;;22.60;53.10;;;;;;492161;241;1398;-60
2022/10/15 01:23:20;;;;;;;;;;;22.60;53.20;;;;;;492135;241;1170;-61
2022/10/15 01:25:21;;;;;;;;;;;22.60;53.30;;;;;;492220;240;1134;-60
2022/10/15 01:27:22;;;;;;;;;;;22.60;53.10;;;;;;492163;241;1206;-60
2022/10/15 01:29:24;;;;;;;;;;;22.60;53.10;;;;;;492187;240;1139;-61
2022/10/15 01:31:25;;;;;;;;;;;22.60;53.00;;;;;;492327;240;1192;-61
2022/10/15 01:33:26;;;;;;;;;;;22.60;53.10;;;;;;492245;240;1134;-61
2022/10/15 01:35:28;;;;;;;;;;;22.60;53.20;;;;;;492193;241;2184;-61
2022/10/15 01:37:29;;;;;;;;;;;22.60;53.10;;;;;;492322;240;1353;-61
2022/10/15 01:39:30;;;;;;;;;;;22.60;53.30;;;;;;492379;240;1160;-61
2022/10/15 01:41:32;;;;;;;;;;;22.50;53.40;;;;;;492241;241;1340;-60
2022/10/15 01:43:33;;;;;;;;;;;22.50;53.40;;;;;;492266;241;1153;-60
2022/10/15 01:45:34;;;;;;;;;;;22.50;53.40;;;;;;492322;240;1139;-61
2022/10/15 01:47:36;;;;;;;;;;;22.60;53.10;;;;;;492249;241;1178;-60
2022/10/15 01:49:37;;;;;;;;;;;22.50;53.20;;;;;;492286;240;1140;-60
2022/10/15 01:51:38;;;;;;;;;;;22.60;53.30;;;;;;492331;240;1249;-61
2022/10/15 01:53:40;;;;;;;;;;;22.60;53.10;;;;;;492303;240;1177;-61
2022/10/15 01:55:41;;;;;;;;;;;22.60;53.10;;;;;;492175;241;2187;-60
2022/10/15 01:57:42;;;;;;;;;;;22.60;53.00;;;;;;492220;241;1099;-61
2022/10/15 01:59:44;;;;;;;;;;;22.50;53.20;;;;;;492389;240;1279;-60
2022/10/15 02:01:45;;;;;;;;;;;22.60;53.10;;;;;;492233;240;1092;-61
2022/10/15 02:03:46;;;;;;;;;;;22.60;53.20;;;;;;492276;240;1284;-60
2022/10/15 02:05:48;;;;;;;;;;;22.60;53.20;;;;;;492154;241;1172;-60
2022/10/15 02:07:49;;;;;;;;;;;22.60;53.30;;;;;;492388;240;1278;-60
2022/10/15 02:09:50;;;;;;;;;;;22.60;53.20;;;;;;492180;241;1198;-61
2022/10/15 02:11:52;;;;;;;;;;;22.60;53.30;;;;;;492228;240;1182;-60
2022/10/15 02:13:53;;;;;;;;;;;22.50;53.30;;;;;;492232;240;1196;-60
2022/10/15 02:15:54;;;;;;;;;;;22.50;53.20;;;;;;492294;240;2176;-60
2022/10/15 02:17:55;;;;;;;;;;;22.40;53.30;;;;;;492206;240;1263;-61
2022/10/15 02:19:57;;;;;;;;;;;22.30;53.90;;;;;;492178;241;1159;-61
2022/10/15 02:21:58;;;;;;;;;;;22.40;53.70;;;;;;492205;240;1223;-60
2022/10/15 02:24:00;;;;;;;;;;;22.40;53.70;;;;;;492169;241;1211;-61
2022/10/15 02:26:01;;;;;;;;;;;22.40;53.50;;;;;;492217;240;1211;-61
2022/10/15 02:28:02;;;;;;;;;;;22.50;53.60;;;;;;492200;241;1202;-61
2022/10/15 02:30:03;;;;;;;;;;;22.40;53.80;;;;;;492331;240;1141;-62
2022/10/15 02:32:05;;;;;;;;;;;22.40;53.80;;;;;;492197;240;1220;-61
2022/10/15 02:34:06;;;;;;;;;;;22.40;53.80;;;;;;492271;240;1198;-61
2022/10/15 02:36:08;;;;;;;;;;;22.40;53.60;;;;;;492182;241;2199;-61
2022/10/15 02:38:09;;;;;;;;;;;22.40;53.60;;;;;;492441;240;1149;-62
2022/10/15 02:40:10;;;;;;;;;;;22.50;53.40;;;;;;492186;241;1285;-60
2022/10/15 02:42:12;;;;;;;;;;;22.60;53.30;;;;;;492266;240;1221;-61
2022/10/15 02:44:13;;;;;;;;;;;22.70;52.90;;;;;;492400;240;1186;-61
2022/10/15 02:46:14;;;;;;;;;;;22.70;52.80;;;;;;492241;240;1277;-60
2022/10/15 02:48:16;;;;;;;;;;;22.70;52.90;;;;;;492158;241;1178;-60
2022/10/15 02:50:17;;;;;;;;;;;22.70;52.80;;;;;;492315;240;1271;-60
2022/10/15 02:52:19;;;;;;;;;;;22.60;53.00;;;;;;492049;240;1157;-60
2022/10/15 02:54:20;;;;;;;;;;;22.60;52.90;;;;;;492191;241;1161;-60
2022/10/15 02:56:21;;;;;;;;;;;22.60;53.00;;;;;;491980;241;2192;-61
2022/10/15 02:58:23;;;;;;;;;;;22.60;52.90;;;;;;492267;240;1173;-60
2022/10/15 03:00:24;;;;;;;;;;;22.50;52.90;;;;;;492192;241;1264;-62
2022/10/15 03:02:25;;;;;;;;;;;22.50;53.10;;;;;;492021;240;1680;-60
2022/10/15 03:04:27;;;;;;;;;;;22.60;53.00;;;;;;492190;241;1188;-60
2022/10/15 03:06:28;;;;;;;;;;;22.50;52.90;;;;;;492118;240;1188;-60
2022/10/15 03:08:29;;;;;;;;;;;22.50;53.00;;;;;;492136;241;1244;-61
2022/10/15 03:10:31;;;;;;;;;;;22.50;53.00;;;;;;492189;240;1258;-61
2022/10/15 03:12:32;;;;;;;;;;;22.50;53.00;;;;;;492231;240;1112;-60
2022/10/15 03:14:33;;;;;;;;;;;22.50;52.80;;;;;;492226;240;1148;-62
2022/10/15 03:16:35;;;;;;;;;;;22.50;53.00;;;;;;492122;241;2203;-61
2022/10/15 03:18:36;;;;;;;;;;;22.60;52.90;;;;;;492116;241;1180;-60
2022/10/15 03:20:37;;;;;;;;;;;22.60;52.80;;;;;;492129;241;1234;-61
2022/10/15 03:22:39;;;;;;;;;;;22.60;52.80;;;;;;492221;240;1270;-60
2022/10/15 03:24:40;;;;;;;;;;;22.60;52.80;;;;;;492209;240;1167;-61
2022/10/15 03:26:41;;;;;;;;;;;22.70;52.70;;;;;;492287;240;1213;-61
2022/10/15 03:28:43;;;;;;;;;;;22.80;52.40;;;;;;492241;240;1192;-61
2022/10/15 03:30:44;;;;;;;;;;;22.70;52.60;;;;;;492111;240;1138;-61
2022/10/15 03:32:45;;;;;;;;;;;22.70;52.60;;;;;;492131;240;1210;-62
2022/10/15 03:34:47;;;;;;;;;;;22.80;52.70;;;;;;492464;240;1203;-61
2022/10/15 03:36:48;;;;;;;;;;;22.90;52.40;;;;;;491998;240;2147;-61
2022/10/15 03:38:49;;;;;;;;;;;22.80;52.40;;;;;;492177;240;1237;-61
2022/10/15 03:40:50;;;;;;;;;;;22.90;52.50;;;;;;492052;241;1196;-60
2022/10/15 03:42:52;;;;;;;;;;;22.90;52.50;;;;;;492067;241;1233;-60
2022/10/15 03:44:53;;;;;;;;;;;22.80;52.60;;;;;;492197;240;1184;-61
2022/10/15 03:46:54;;;;;;;;;;;22.80;52.60;;;;;;492028;240;1165;-60
2022/10/15 03:48:56;;;;;;;;;;;22.90;52.40;;;;;;492181;241;1139;-61
2022/10/15 03:50:57;;;;;;;;;;;22.90;52.50;;;;;;492139;240;1132;-60
2022/10/15 03:52:58;;;;;;;;;;;22.80;52.70;;;;;;492307;240;1195;-60
2022/10/15 03:55:00;;;;;;;;;;;22.90;52.50;;;;;;492127;241;1298;-60
2022/10/15 03:57:01;;;;;;;;;;;22.90;52.40;;;;;;492186;240;2187;-62
2022/10/15 03:59:02;;;;;;;;;;;23.00;52.50;;;;;;492140;240;1162;-61
2022/10/15 04:01:04;;;;;;;;;;;23.00;52.50;;;;;;492213;240;1199;-60
2022/10/15 04:03:05;;;;;;;;;;;22.90;52.60;;;;;;492213;240;1155;-60
2022/10/15 04:05:06;;;;;;;;;;;23.00;52.50;;;;;;492142;241;1270;-61
2022/10/15 04:07:08;;;;;;;;;;;23.00;52.50;;;;;;492199;240;1152;-61
2022/10/15 04:09:09;;;;;;;;;;;22.90;52.70;;;;;;492288;240;1372;-60
2022/10/15 04:11:10;;;;;;;;;;;23.00;52.70;;;;;;492049;240;1279;-61
2022/10/15 04:13:12;;;;;;;;;;;23.00;52.60;;;;;;492275;240;1438;-60
2022/10/15 04:15:13;;;;;;;;;;;23.00;52.70;;;;;;492184;241;1139;-61
2022/10/15 04:17:14;;;;;;;;;;;23.10;52.50;;;;;;492006;240;2191;-60
2022/10/15 04:19:16;;;;;;;;;;;23.10;52.30;;;;;;492369;240;1223;-62
2022/10/15 04:21:17;;;;;;;;;;;23.10;52.30;;;;;;491952;241;1534;-61
2022/10/15 04:23:18;;;;;;;;;;;23.10;52.60;;;;;;492176;241;1168;-61
2022/10/15 04:25:20;;;;;;;;;;;23.00;52.60;;;;;;492303;240;1323;-61
2022/10/15 04:27:21;;;;;;;;;;;23.00;52.70;;;;;;492007;240;1273;-60
2022/10/15 04:29:22;;;;;;;;;;;23.00;52.70;;;;;;492154;241;1183;-61
2022/10/15 04:31:24;;;;;;;;;;;23.00;52.60;;;;;;492143;240;1194;-61
2022/10/15 04:33:25;;;;;;;;;;;23.00;52.70;;;;;;492180;240;1189;-61
2022/10/15 04:35:26;;;;;;;;;;;23.00;52.70;;;;;;492167;240;1281;-60
2022/10/15 04:37:28;;;;;;;;;;;23.00;52.80;;;;;;492175;241;2196;-60
2022/10/15 04:39:29;;;;;;;;;;;23.00;52.80;;;;;;492341;240;1205;-61
2022/10/15 04:41:30;;;;;;;;;;;23.00;52.90;;;;;;492207;240;1256;-60
2022/10/15 04:43:32;;;;;;;;;;;23.00;52.70;;;;;;492211;240;1342;-61
2022/10/15 04:45:33;;;;;;;;;;;23.00;52.70;;;;;;492159;241;1218;-61
2022/10/15 04:47:34;;;;;;;;;;;23.00;52.80;;;;;;492136;241;1211;-60
2022/10/15 04:49:36;;;;;;;;;;;23.00;52.70;;;;;;492316;240;1151;-61
2022/10/15 04:51:37;;;;;;;;;;;23.00;52.80;;;;;;492111;241;1154;-60
2022/10/15 04:53:38;;;;;;;;;;;22.90;52.80;;;;;;492181;241;1201;-61
2022/10/15 04:55:40;;;;;;;;;;;22.90;52.90;;;;;;492203;240;1209;-61
2022/10/15 04:57:41;;;;;;;;;;;22.90;52.90;;;;;;492215;241;2148;-61
2022/10/15 04:59:43;;;;;;;;;;;23.00;52.80;;;;;;492337;240;1135;-61
2022/10/15 05:01:44;;;;;;;;;;;23.00;52.80;;;;;;492224;241;1182;-60
2022/10/15 05:03:45;;;;;;;;;;;22.90;53.00;;;;;;492409;240;1196;-61
2022/10/15 05:05:47;;;;;;;;;;;22.90;53.00;;;;;;492361;240;1230;-61
2022/10/15 05:07:48;;;;;;;;;;;22.80;53.20;;;;;;492290;240;1201;-60
2022/10/15 05:09:49;;;;;;;;;;;22.80;53.20;;;;;;492204;241;1239;-61
2022/10/15 05:11:51;;;;;;;;;;;22.90;53.10;;;;;;492261;240;1165;-60
2022/10/15 05:13:52;;;;;;;;;;;22.90;53.10;;;;;;492225;240;1234;-61
2022/10/15 05:15:53;;;;;;;;;;;22.80;53.10;;;;;;492247;240;1180;-61
2022/10/15 05:17:55;;;;;;;;;;;22.80;53.10;;;;;;492363;240;2187;-61
2022/10/15 05:19:56;;;;;;;;;;;22.80;53.10;;;;;;492347;240;1460;-61
2022/10/15 05:21:57;;;;;;;;;;;22.80;53.10;;;;;;492285;240;1173;-60
2022/10/15 05:23:59;;;;;;;;;;;22.80;53.20;;;;;;492173;241;1234;-60
2022/10/15 05:26:00;;;;;;;;;;;22.80;53.10;;;;;;492223;240;1179;-60
2022/10/15 05:28:01;;;;;;;;;;;22.80;53.20;;;;;;492187;241;1232;-61
2022/10/15 05:30:03;;;;;;;;;;;22.80;53.20;;;;;;492312;240;1202;-61
2022/10/15 05:32:04;;;;;;;;;;;22.80;53.10;;;;;;492188;241;1211;-61
2022/10/15 05:34:06;;;;;;;;;;;22.80;53.20;;;;;;492410;240;1241;-60
2022/10/15 05:36:07;;;;;;;;;;;22.80;53.30;;;;;;492159;240;1190;-61
2022/10/15 05:38:09;;;;;;;;;;;22.80;53.20;;;;;;492195;240;2191;-61
2022/10/15 05:40:10;;;;;;;;;;;22.80;53.20;;;;;;492192;240;1157;-61
2022/10/15 05:42:11;;;;;;;;;;;22.80;53.40;;;;;;492201;240;1308;-60
2022/10/15 05:44:12;;;;;;;;;;;22.80;53.30;;;;;;492157;241;1163;-61
2022/10/15 05:46:14;;;;;;;;;;;22.90;53.20;;;;;;492276;240;1201;-60
2022/10/15 05:48:16;;;;;;;;;;;22.80;53.30;;;;;;492249;240;1213;-61
2022/10/15 05:50:16;;;;;;;;;;;22.80;53.40;;;;;;492525;240;1502;-60
2022/10/15 05:52:18;;;;;;;;;;;22.80;53.40;;;;;;492168;241;1260;-60
2022/10/15 05:54:19;;;;;;;;;;;22.80;53.30;;;;;;492225;240;1216;-61
2022/10/15 05:56:20;;;;;;;;;;;22.80;53.30;;;;;;492056;240;1552;-61
2022/10/15 05:58:22;;;;;;;;;;;22.90;53.30;;;;;;492388;240;2199;-60
2022/10/15 06:00:23;;;;;;;;;;;22.80;53.60;;;;;;492209;241;1199;-60
2022/10/15 06:02:24;;;;;;;;;;;22.80;53.50;;;;;;491976;241;1442;-61
2022/10/15 06:04:26;;;;;;;;;;;22.90;53.40;;;;;;492612;240;1203;-61
2022/10/15 06:06:27;;;;;;;;;;;22.80;53.50;;;;;;492037;241;1196;-61
2022/10/15 06:08:28;;;;;;;;;;;22.80;53.60;;;;;;492223;241;1142;-61
2022/10/15 06:10:30;;;;;;;;;;;22.80;53.70;;;;;;492369;240;1189;-60
2022/10/15 06:12:31;;;;;;;;;;;22.80;53.60;;;;;;492024;241;1147;-60
2022/10/15 06:14:32;;;;;;;;;;;22.90;53.50;;;;;;492591;240;1121;-61
2022/10/15 06:16:34;;;;;;;;;;;22.80;53.60;;;;;;492042;241;2164;-60
2022/10/15 06:18:35;;;;;;;;;;;22.80;53.60;;;;;;492444;240;1325;-61
2022/10/15 06:20:37;;;;;;;;;;;22.80;53.60;;;;;;492138;241;1333;-60
2022/10/15 06:22:38;;;;;;;;;;;22.80;53.60;;;;;;492149;240;1210;-60
2022/10/15 06:24:39;;;;;;;;;;;22.80;53.60;;;;;;492207;240;1204;-61
2022/10/15 06:26:41;;;;;;;;;;;22.80;53.50;;;;;;491996;241;1181;-60
2022/10/15 06:28:42;;;;;;;;;;;22.80;53.50;;;;;;492156;241;1185;-60
2022/10/15 06:30:43;;;;;;;;;;;22.90;53.50;;;;;;492203;241;1361;-61
2022/10/15 06:32:45;;;;;;;;;;;22.90;53.40;;;;;;492233;240;1224;-60
2022/10/15 06:34:46;;;;;;;;;;;22.90;53.50;;;;;;492184;241;1123;-61
2022/10/15 06:36:47;;;;;;;;;;;22.80;53.60;;;;;;492148;240;2204;-61
2022/10/15 06:38:48;;;;;;;;;;;22.90;53.60;;;;;;492177;240;1109;-60
2022/10/15 06:40:50;;;;;;;;;;;22.80;53.60;;;;;;492174;241;1198;-60
2022/10/15 06:42:51;;;;;;;;;;;22.80;53.50;;;;;;492174;241;1166;-61
2022/10/15 06:44:53;;;;;;;;;;;22.90;53.60;;;;;;492194;241;1163;-61
2022/10/15 06:46:54;;;;;;;;;;;22.90;53.50;;;;;;492333;240;1211;-60
2022/10/15 06:48:55;;;;;;;;;;;22.80;53.60;;;;;;492175;241;1199;-60
2022/10/15 06:50:56;;;;;;;;;;;22.80;53.60;;;;;;492285;240;1158;-60
2022/10/15 06:52:58;;;;;;;;;;;22.80;53.70;;;;;;492242;240;1210;-61
2022/10/15 06:54:59;;;;;;;;;;;22.80;53.60;;;;;;492178;241;1133;-61
2022/10/15 06:57:00;;;;;;;;;;;22.90;53.50;;;;;;492107;241;2161;-61
2022/10/15 06:59:02;;;;;;;;;;;22.90;53.50;;;;;;492256;240;1245;-61
2022/10/15 07:01:03;;;;;;;;;;;22.90;53.60;;;;;;492148;240;1129;-60
2022/10/15 07:03:04;;;;;;;;;;;22.90;53.60;;;;;;492166;240;1193;-61
2022/10/15 07:05:06;;;;;;;;;;;22.90;53.70;;;;;;492308;240;1154;-61
2022/10/15 07:07:07;;;;;;;;;;;22.90;53.50;;;;;;492195;240;1149;-61
2022/10/15 07:09:08;;;;;;;;;;;22.90;53.60;;;;;;492141;241;1223;-61
2022/10/15 07:11:10;;;;;;;;;;;22.80;53.70;;;;;;492099;241;1203;-60
2022/10/15 07:13:11;;;;;;;;;;;22.90;53.70;;;;;;492128;240;1219;-61
2022/10/15 07:15:12;;;;;;;;;;;22.80;53.80;;;;;;492163;240;1321;-61
2022/10/15 07:17:14;;;;;;;;;;;22.80;53.70;;;;;;492180;240;2188;-60
2022/10/15 07:19:15;;;;;;;;;;;22.80;53.70;;;;;;492209;240;1180;-60
2022/10/15 07:21:16;;;;;;;;;;;22.90;53.60;;;;;;492154;240;1212;-61
2022/10/15 07:23:18;;;;;;;;;;;22.80;53.70;;;;;;492132;241;1115;-61
2022/10/15 07:25:19;;;;;;;;;;;22.80;53.90;;;;;;492111;241;1177;-60
2022/10/15 07:27:20;;;;;;;;;;;22.80;53.90;;;;;;492113;241;1380;-61
2022/10/15 07:29:22;;;;;;;;;;;22.80;53.80;;;;;;492206;240;1298;-60
2022/10/15 07:31:23;;;;;;;;;;;22.80;53.80;;;;;;492146;241;1269;-61
2022/10/15 07:33:24;;;;;;;;;;;22.80;53.90;;;;;;492186;240;1321;-60
2022/10/15 07:35:26;;;;;;;;;;;22.80;53.80;;;;;;492159;240;1296;-60
2022/10/15 07:37:27;;;;;;;;;;;22.80;53.70;;;;;;492133;241;2187;-61
2022/10/15 07:39:28;;;;;;;;;;;22.80;53.90;;;;;;492440;240;1154;-61
2022/10/15 07:41:30;;;;;;;;;;;22.80;54.10;;;;;;492419;240;1148;-61
2022/10/15 07:43:31;;;;;;;;;;;22.80;54.00;;;;;;492211;241;1165;-62
2022/10/15 07:45:32;;;;;;;;;;;22.80;54.10;;;;;;492341;240;1084;-62
2022/10/15 07:47:33;;;;;;;;;;;22.80;54.10;;;;;;492186;241;1142;-60
2022/10/15 07:49:35;;;;;;;;;;;22.80;54.10;;;;;;492226;240;1189;-60
2022/10/15 07:51:36;;;;;;;;;;;22.80;54.10;;;;;;492244;240;1197;-60
2022/10/15 07:53:37;;;;;;;;;;;22.80;54.00;;;;;;492253;241;1121;-61
2022/10/15 07:55:39;;;;;;;;;;;22.80;54.00;;;;;;492237;241;1090;-61
2022/10/15 07:57:40;;;;;;;;;;;22.70;54.10;;;;;;492203;240;2189;-61
2022/10/15 07:59:41;;;;;;;;;;;22.70;54.20;;;;;;492184;240;1146;-60
2022/10/15 08:01:43;;;;;;;;;;;22.70;54.40;;;;;;492259;240;1138;-61
2022/10/15 08:03:44;;;;;;;;;;;22.70;54.30;;;;;;492232;240;1158;-60
2022/10/15 08:05:46;;;;;;;;;;;22.70;54.20;;;;;;492311;240;1217;-60
2022/10/15 08:07:47;;;;;;;;;;;22.80;54.20;;;;;;492380;240;1100;-61
2022/10/15 08:09:48;;;;;;;;;;;22.70;54.20;;;;;;492230;241;1156;-60
2022/10/15 08:11:49;;;;;;;;;;;22.70;54.20;;;;;;492294;240;1110;-61
2022/10/15 08:13:51;;;;;;;;;;;22.80;54.30;;;;;;492183;241;1279;-60
2022/10/15 08:15:52;;;;;;;;;;;22.80;54.30;;;;;;492365;240;1155;-60
2022/10/15 08:17:53;;;;;;;;;;;22.70;54.40;;;;;;492150;240;2204;-61
2022/10/15 08:19:55;;;;;;;;;;;22.70;54.30;;;;;;492459;240;1102;-61
2022/10/15 08:21:56;;;;;;;;;;;22.70;54.30;;;;;;492179;241;1249;-60
2022/10/15 08:23:59;;;;;;;;;;;22.70;54.40;;;;;;492234;240;1194;-60
2022/10/15 08:25:59;;;;;;;;;;;22.80;54.40;;;;;;492170;241;1421;-61
2022/10/15 08:28:00;;;;;;;;;;;22.80;54.30;;;;;;492184;240;1230;-61
2022/10/15 08:30:01;;;;;;;;;;;22.70;54.40;;;;;;492196;241;1169;-61
2022/10/15 08:32:03;;;;;;;;;;;22.70;54.40;;;;;;492199;241;1116;-61
2022/10/15 08:34:04;;;;;;;;;;;22.70;54.40;;;;;;492278;240;1109;-61
2022/10/15 08:36:05;;;;;;;;;;;22.80;54.50;;;;;;492192;241;1137;-60
2022/10/15 08:38:07;;;;;;;;;;;22.70;54.40;;;;;;492300;240;2187;-61
2022/10/15 08:40:08;;;;;;;;;;;22.70;54.40;;;;;;492195;241;1116;-60
2022/10/15 08:42:10;;;;;;;;;;;22.80;54.40;;;;;;492241;240;1293;-61
2022/10/15 08:44:11;;;;;;;;;;;22.70;54.40;;;;;;492260;240;1409;-61
2022/10/15 08:46:12;;;;;;;;;;;22.70;54.40;;;;;;492275;240;1170;-61
2022/10/15 08:48:13;;;;;;;;;;;22.80;54.40;;;;;;492193;241;1171;-61
2022/10/15 08:50:15;;;;;;;;;;;22.80;54.40;;;;;;492237;240;1146;-61
2022/10/15 08:52:16;;;;;;;;;;;22.70;54.40;;;;;;492120;240;1172;-60
2022/10/15 08:54:17;;;;;;;;;;;22.70;54.50;;;;;;492233;240;1270;-60
2022/10/15 08:56:19;;;;;;;;;;;22.70;54.60;;;;;;492390;240;1211;-60
2022/10/15 08:58:20;;;;;;;;;;;22.70;54.50;;;;;;492137;240;2152;-62
2022/10/15 09:00:21;;;;;;;;;;;22.80;54.30;;;;;;492169;240;1305;-61
2022/10/15 09:02:23;;;;;;;;;;;22.80;54.30;;;;;;492156;241;1168;-60
2022/10/15 09:04:24;;;;;;;;;;;22.70;54.30;;;;;;492214;240;1217;-60
2022/10/15 09:06:25;;;;;;;;;;;22.80;54.40;;;;;;492352;240;1328;-61
2022/10/15 09:08:27;;;;;;;;;;;22.80;54.50;;;;;;492149;241;1211;-61
2022/10/15 09:10:28;;;;;;;;;;;22.80;54.40;;;;;;492226;240;1222;-61
2022/10/15 09:12:29;;;;;;;;;;;22.80;54.50;;;;;;492137;241;1338;-60
2022/10/15 09:14:30;;;;;;;;;;;22.80;54.50;;;;;;492218;240;1163;-61
2022/10/15 09:16:32;;;;;;;;;;;22.80;54.40;;;;;;492160;241;1164;-60
2022/10/15 09:18:33;;;;;;;;;;;22.70;54.50;;;;;;492186;240;2192;-61
2022/10/15 09:20:34;;;;;;;;;;;22.80;54.40;;;;;;492199;240;1200;-61
2022/10/15 09:22:36;;;;;;;;;;;22.70;54.50;;;;;;492322;240;1126;-61
2022/10/15 09:24:37;;;;;;;;;;;22.70;54.50;;;;;;492144;240;1345;-60
2022/10/15 09:26:38;;;;;;;;;;;22.70;54.50;;;;;;492180;241;1194;-60
2022/10/15 09:28:40;;;;;;;;;;;22.80;54.40;;;;;;492298;240;1202;-61
2022/10/15 09:30:41;;;;;;;;;;;22.70;54.40;;;;;;492210;240;1138;-61
2022/10/15 09:32:42;;;;;;;;;;;22.80;54.40;;;;;;492251;240;1102;-61
2022/10/15 09:34:44;;;;;;;;;;;22.70;54.40;;;;;;492228;240;1208;-60
2022/10/15 09:36:45;;;;;;;;;;;22.70;54.30;;;;;;492160;240;1173;-61
2022/10/15 09:38:46;;;;;;;;;;;22.70;54.40;;;;;;492208;241;2188;-61
2022/10/15 09:40:48;;;;;;;;;;;22.70;54.30;;;;;;492204;241;1207;-60
2022/10/15 09:42:49;;;;;;;;;;;22.70;54.50;;;;;;492147;241;1237;-60
2022/10/15 09:44:50;;;;;;;;;;;22.70;54.30;;;;;;492185;240;1174;-61
2022/10/15 09:46:52;;;;;;;;;;;22.70;54.40;;;;;;492180;240;1274;-60
2022/10/15 09:48:53;;;;;;;;;;;22.70;54.50;;;;;;492222;240;1203;-61
2022/10/15 09:50:54;;;;;;;;;;;22.70;54.30;;;;;;492247;240;1287;-60
2022/10/15 09:52:56;;;;;;;;;;;22.70;54.30;;;;;;492243;240;1142;-60
2022/10/15 09:54:57;;;;;;;;;;;22.70;54.20;;;;;;492251;240;1219;-61
2022/10/15 09:56:58;;;;;;;;;;;22.80;54.10;;;;;;492144;241;1240;-61
2022/10/15 09:59:00;;;;;;;;;;;22.80;54.10;;;;;;492404;240;2187;-61
2022/10/15 10:01:01;;;;;;;;;;;22.80;54.10;;;;;;492169;241;1171;-61
2022/10/15 10:03:02;;;;;;;;;;;22.70;54.30;;;;;;492172;241;1245;-60
2022/10/15 10:05:04;;;;;;;;;;;22.80;54.20;;;;;;492216;240;1165;-60
2022/10/15 10:07:06;;;;;;;;;;;22.80;54.10;;;;;;492140;241;1087;-63
2022/10/15 10:09:07;;;;;;;;;;;22.80;54.20;;;;;;492183;241;1178;-60
2022/10/15 10:11:08;;;;;;;;;;;22.70;54.30;;;;;;492178;241;1197;-61
2022/10/15 10:13:10;;;;;;;;;;;22.80;54.20;;;;;;492193;240;1152;-60
2022/10/15 10:15:11;;;;;;;;;;;22.70;54.30;;;;;;492178;240;1157;-61
2022/10/15 10:17:12;;;;;;;;;;;22.80;54.20;;;;;;492254;240;1167;-61
2022/10/15 10:19:14;;;;;;;;;;;22.80;54.30;;;;;;492176;241;2199;-61
2022/10/15 10:21:15;;;;;;;;;;;22.70;54.40;;;;;;492323;240;1146;-60
2022/10/15 10:23:16;;;;;;;;;;;22.80;54.40;;;;;;492144;241;1169;-61
2022/10/15 10:25:18;;;;;;;;;;;22.80;54.30;;;;;;492128;240;1167;-61
2022/10/15 10:27:19;;;;;;;;;;;22.70;54.40;;;;;;492257;240;1238;-60
2022/10/15 10:29:20;;;;;;;;;;;22.80;54.40;;;;;;492404;240;1153;-61
2022/10/15 10:31:21;;;;;;;;;;;22.80;54.50;;;;;;492182;241;1171;-61
2022/10/15 10:33:23;;;;;;;;;;;22.80;54.40;;;;;;492208;240;1267;-60
2022/10/15 10:35:24;;;;;;;;;;;22.80;54.40;;;;;;492273;240;1103;-61
2022/10/15 10:37:25;;;;;;;;;;;22.80;54.40;;;;;;492197;241;1334;-61
2022/10/15 10:39:27;;;;;;;;;;;22.80;54.40;;;;;;492342;240;2156;-61
2022/10/15 10:41:28;;;;;;;;;;;22.80;54.40;;;;;;492252;240;1258;-61
2022/10/15 10:43:29;;;;;;;;;;;22.80;54.40;;;;;;492169;241;1189;-61
2022/10/15 10:45:33;;;;;;;;;;;22.80;54.40;;;;;;492159;240;1344;-61
2022/10/15 10:47:32;;;;;;;;;;;22.80;54.30;;;;;;492186;241;1407;-60
2022/10/15 10:49:33;;;;;;;;;;;22.80;54.40;;;;;;492183;240;1198;-61
2022/10/15 10:51:35;;;;;;;;;;;22.80;54.40;;;;;;492173;240;1163;-60
2022/10/15 10:53:36;;;;;;;;;;;22.90;54.30;;;;;;492221;240;1165;-61
2022/10/15 10:55:37;;;;;;;;;;;22.90;54.30;;;;;;492223;240;1240;-61
2022/10/15 10:57:39;;;;;;;;;;;22.90;54.30;;;;;;492202;241;1209;-60
2022/10/15 10:59:40;;;;;;;;;;;22.90;54.40;;;;;;492252;240;2236;-60
2022/10/15 11:01:42;;;;;;;;;;;22.90;54.20;;;;;;492283;240;1262;-61
2022/10/15 11:03:43;;;;;;;;;;;22.90;54.20;;;;;;492155;241;1161;-61
2022/10/15 11:05:44;;;;;;;;;;;22.90;54.50;;;;;;492126;240;1514;-61
2022/10/15 11:07:46;;;;;;;;;;;22.80;54.50;;;;;;492108;240;1562;-61
2022/10/15 11:09:47;;;;;;;;;;;22.80;54.50;;;;;;492208;241;1248;-61
2022/10/15 11:11:48;;;;;;;;;;;22.90;54.50;;;;;;492164;240;1176;-62
2022/10/15 11:13:50;;;;;;;;;;;22.90;54.50;;;;;;492156;240;1164;-61
2022/10/15 11:15:51;;;;;;;;;;;22.90;54.60;;;;;;492223;240;1127;-61
2022/10/15 11:17:52;;;;;;;;;;;22.90;54.50;;;;;;492158;241;1193;-61
2022/10/15 11:19:54;;;;;;;;;;;22.90;54.50;;;;;;492207;240;2191;-61
2022/10/15 11:21:55;;;;;;;;;;;22.90;54.40;;;;;;492127;241;1225;-62
2022/10/15 11:23:56;;;;;;;;;;;22.80;54.40;;;;;;492159;241;1173;-60
2022/10/15 11:25:58;;;;;;;;;;;22.80;54.50;;;;;;492156;241;1207;-60
2022/10/15 11:27:59;;;;;;;;;;;22.80;54.40;;;;;;492199;240;1217;-61
2022/10/15 11:30:01;;;;;;;;;;;22.90;54.30;;;;;;492236;240;1615;-61
2022/10/15 11:32:03;;;;;;;;;;;22.90;54.30;;;;;;492154;241;1245;-61
2022/10/15 11:34:03;;;;;;;;;;;22.90;54.20;;;;;;492212;240;1412;-61
2022/10/15 11:36:05;;;;;;;;;;;22.90;54.30;;;;;;492244;240;1225;-60
2022/10/15 11:38:06;;;;;;;;;;;22.90;54.30;;;;;;492237;240;1183;-60
2022/10/15 11:40:07;;;;;;;;;;;22.80;54.30;;;;;;492181;240;2152;-61
2022/10/15 11:42:08;;;;;;;;;;;22.90;54.10;;;;;;492183;241;1136;-60
2022/10/15 11:44:10;;;;;;;;;;;22.90;54.20;;;;;;492355;240;1206;-61
2022/10/15 11:46:11;;;;;;;;;;;22.80;54.20;;;;;;492173;241;1194;-60
2022/10/15 11:48:12;;;;;;;;;;;22.90;54.30;;;;;;492232;240;1234;-61
2022/10/15 11:50:14;;;;;;;;;;;22.80;54.50;;;;;;492216;240;1165;-61
2022/10/15 11:52:15;;;;;;;;;;;22.80;54.50;;;;;;492004;240;1198;-61
2022/10/15 11:54:16;;;;;;;;;;;22.80;54.40;;;;;;492144;240;1215;-60
2022/10/15 11:56:18;;;;;;;;;;;22.80;54.30;;;;;;492040;240;1265;-60